sensor_id;sensor_type;location;lat;lon;timestamp;pressure;altitude;pressure_sealevel;temperature;humidity
46836;BME280;32573;51.290;6.926;2024-03-25T00:00:35;99324.16;;;7.37;100.00
46836;BME280;32573;51.290;6.926;2024-03-25T00:03:06;99323.28;;;7.37;100.00
46836;BME280;32573;51.290;6.926;2024-03-25T00:05:33;99331.03;;;7.35;100.00
46836;BME280;32573;51.290;6.926;2024-03-25T00:08:10;99334.44;;;7.32;100.00
46836;BME280;32573;51.290;6.926;2024-03-25T00:10:39;99331.78;;;7.31;100.00
46836;BME280;32573;51.290;6.926;2024-03-25T00:13:08;99330.03;;;7.30;100.00
46836;BME280;32573;51.290;6.926;2024-03-25T00:15:36;99338.69;;;7.29;100.00
46836;BME280;32573;51.290;6.926;2024-03-25T00:18:09;99327.38;;;7.28;100.00
46836;BME280;32573;51.290;6.926;2024-03-25T00:20:36;99334.38;;;7.31;100.00
46836;BME280;32573;51.290;6.926;2024-03-25T00:23:04;99336.97;;;7.31;100.00
46836;BME280;32573;51.290;6.926;2024-03-25T00:25:33;99329.16;;;7.29;100.00
46836;BME280;32573;51.290;6.926;2024-03-25T00:28:04;99325.63;;;7.27;100.00
46836;BME280;32573;51.290;6.926;2024-03-25T00:30:35;99316.00;;;7.25;100.00
46836;BME280;32573;51.290;6.926;2024-03-25T00:33:03;99335.94;;;7.24;100.00
46836;BME280;32573;51.290;6.926;2024-03-25T00:35:30;99336.75;;;7.23;100.00
46836;BME280;32573;51.290;6.926;2024-03-25T00:37:59;99330.59;;;7.20;100.00
46836;BME280;32573;51.290;6.926;2024-03-25T00:40:26;99329.69;;;7.18;100.00
46836;BME280;32573;51.290;6.926;2024-03-25T00:42:55;99328.75;;;7.16;100.00
46836;BME280;32573;51.290;6.926;2024-03-25T00:45:21;99333.03;;;7.13;100.00
46836;BME280;32573;51.290;6.926;2024-03-25T00:47:54;99328.69;;;7.12;100.00
46836;BME280;32573;51.290;6.926;2024-03-25T00:50:24;99327.81;;;7.13;100.00
46836;BME280;32573;51.290;6.926;2024-03-25T00:52:52;99328.63;;;7.11;100.00
46836;BME280;32573;51.290;6.926;2024-03-25T00:55:21;99328.59;;;7.09;100.00
46836;BME280;32573;51.290;6.926;2024-03-25T00:57:53;99327.75;;;7.10;100.00
46836;BME280;32573;51.290;6.926;2024-03-25T01:00:24;99323.41;;;7.11;100.00
46836;BME280;32573;51.290;6.926;2024-03-25T01:02:52;99331.28;;;7.12;100.00
46836;BME280;32573;51.290;6.926;2024-03-25T01:05:19;99329.53;;;7.13;100.00
46836;BME280;32573;51.290;6.926;2024-03-25T01:07:47;99331.28;;;7.12;100.00
46836;BME280;32573;51.290;6.926;2024-03-25T01:10:15;99329.53;;;7.11;100.00
46836;BME280;32573;51.290;6.926;2024-03-25T01:12:43;99326.94;;;7.11;100.00
46836;BME280;32573;51.290;6.926;2024-03-25T01:15:09;99328.63;;;7.11;100.00
46836;BME280;32573;51.290;6.926;2024-03-25T01:17:40;99327.75;;;7.10;100.00
46836;BME280;32573;51.290;6.926;2024-03-25T01:20:07;99326.88;;;7.10;100.00
46836;BME280;32573;51.290;6.926;2024-03-25T01:22:39;99325.13;;;7.10;100.00
46836;BME280;32573;51.290;6.926;2024-03-25T01:25:07;99326.88;;;7.10;100.00
46836;BME280;32573;51.290;6.926;2024-03-25T01:27:39;99331.19;;;7.09;100.00
46836;BME280;32573;51.290;6.926;2024-03-25T01:30:07;99318.13;;;7.08;100.00
46836;BME280;32573;51.290;6.926;2024-03-25T01:32:44;99326.78;;;7.07;100.00
46836;BME280;32573;51.290;6.926;2024-03-25T01:35:10;99331.13;;;7.06;100.00
46836;BME280;32573;51.290;6.926;2024-03-25T01:37:38;99333.59;;;7.03;100.00
46836;BME280;32573;51.290;6.926;2024-03-25T01:40:08;99332.69;;;7.01;100.00
46836;BME280;32573;51.290;6.926;2024-03-25T01:42:37;99336.97;;;6.99;100.00
46836;BME280;32573;51.290;6.926;2024-03-25T01:45:04;99336.06;;;6.99;100.00
46836;BME280;32573;51.290;6.926;2024-03-25T01:47:36;99336.06;;;6.97;100.00
46836;BME280;32573;51.290;6.926;2024-03-25T01:50:07;99334.25;;;6.96;100.00
46836;BME280;32573;51.290;6.926;2024-03-25T01:52:38;99329.06;;;6.96;100.00
46836;BME280;32573;51.290;6.926;2024-03-25T01:55:07;99325.66;;;6.97;100.00
46836;BME280;32573;51.290;6.926;2024-03-25T01:57:38;99329.97;;;6.97;100.00
46836;BME280;32573;51.290;6.926;2024-03-25T02:00:06;99329.06;;;6.96;100.00
46836;BME280;32573;51.290;6.926;2024-03-25T02:02:48;99328.16;;;6.94;100.00
46836;BME280;32573;51.290;6.926;2024-03-25T02:05:19;99332.44;;;6.92;100.00
46836;BME280;32573;51.290;6.926;2024-03-25T02:07:48;99328.91;;;6.90;100.00
46836;BME280;32573;51.290;6.926;2024-03-25T02:10:16;99332.34;;;6.89;100.00
46836;BME280;32573;51.290;6.926;2024-03-25T02:12:48;99337.41;;;6.84;100.00
46836;BME280;32573;51.290;6.926;2024-03-25T02:15:17;99334.72;;;6.81;100.00
46836;BME280;32573;51.290;6.926;2024-03-25T02:17:45;99333.81;;;6.79;100.00
46836;BME280;32573;51.290;6.926;2024-03-25T02:20:16;99337.09;;;6.74;100.00
46836;BME280;32573;51.290;6.926;2024-03-25T02:22:45;99342.19;;;6.70;100.00
46836;BME280;32573;51.290;6.926;2024-03-25T02:25:14;99336.91;;;6.67;100.00
46836;BME280;32573;51.290;6.926;2024-03-25T02:27:45;99339.47;;;6.66;100.00
46836;BME280;32573;51.290;6.926;2024-03-25T02:30:13;99339.44;;;6.64;100.00
46836;BME280;32573;51.290;6.926;2024-03-25T02:32:41;99341.91;;;6.61;100.00
46836;BME280;32573;51.290;6.926;2024-03-25T02:35:10;99341.00;;;6.59;100.00
46836;BME280;32573;51.290;6.926;2024-03-25T02:37:39;99341.84;;;6.58;100.00
46836;BME280;32573;51.290;6.926;2024-03-25T02:40:08;99347.81;;;6.56;100.00
46836;BME280;32573;51.290;6.926;2024-03-25T02:42:38;99345.19;;;6.54;100.00
46836;BME280;32573;51.290;6.926;2024-03-25T02:45:08;99349.47;;;6.54;100.00
46836;BME280;32573;51.290;6.926;2024-03-25T02:47:39;99345.06;;;6.51;100.00
46836;BME280;32573;51.290;6.926;2024-03-25T02:50:07;99339.00;;;6.51;100.00
46836;BME280;32573;51.290;6.926;2024-03-25T02:52:34;99346.78;;;6.49;100.00
46836;BME280;32573;51.290;6.926;2024-03-25T02:55:05;99351.97;;;6.49;100.00
46836;BME280;32573;51.290;6.926;2024-03-25T02:57:32;99351.97;;;6.49;100.00
46836;BME280;32573;51.290;6.926;2024-03-25T03:00:02;99344.13;;;6.47;100.00
46836;BME280;32573;51.290;6.926;2024-03-25T03:02:31;99350.97;;;6.45;100.00
46836;BME280;32573;51.290;6.926;2024-03-25T03:04:58;99340.53;;;6.44;100.00
46836;BME280;32573;51.290;6.926;2024-03-25T03:07:25;99348.31;;;6.44;100.00
46836;BME280;32573;51.290;6.926;2024-03-25T03:09:53;99340.53;;;6.44;100.00
46836;BME280;32573;51.290;6.926;2024-03-25T03:12:19;99345.69;;;6.42;100.00
46836;BME280;32573;51.290;6.926;2024-03-25T03:14:46;99348.22;;;6.41;100.00
46836;BME280;32573;51.290;6.926;2024-03-25T03:17:13;99345.53;;;6.38;100.00
46836;BME280;32573;51.290;6.926;2024-03-25T03:19:43;99348.94;;;6.35;100.00
46836;BME280;32573;51.290;6.926;2024-03-25T03:22:10;99341.06;;;6.34;100.00
46836;BME280;32573;51.290;6.926;2024-03-25T03:24:37;99345.38;;;6.32;100.00
46836;BME280;32573;51.290;6.926;2024-03-25T03:27:04;99342.66;;;6.29;100.00
46836;BME280;32573;51.290;6.926;2024-03-25T03:29:31;99341.69;;;6.25;100.00
46836;BME280;32573;51.290;6.926;2024-03-25T03:31:57;99338.16;;;6.23;100.00
46836;BME280;32573;51.290;6.926;2024-03-25T03:34:26;99347.66;;;6.22;100.00
46836;BME280;32573;51.290;6.926;2024-03-25T03:36:53;99344.13;;;6.20;100.00
46836;BME280;32573;51.290;6.926;2024-03-25T03:39:21;99338.88;;;6.19;100.00
46836;BME280;32573;51.290;6.926;2024-03-25T03:41:47;99336.28;;;6.19;100.00
46836;BME280;32573;51.290;6.926;2024-03-25T03:44:14;99339.72;;;6.18;100.00
46836;BME280;32573;51.290;6.926;2024-03-25T03:46:41;99333.66;;;6.17;100.00
46836;BME280;32573;51.290;6.926;2024-03-25T03:49:08;99340.59;;;6.18;100.00
46836;BME280;32573;51.290;6.926;2024-03-25T03:51:35;99339.72;;;6.18;100.00
46836;BME280;32573;51.290;6.926;2024-03-25T03:54:04;99338.84;;;6.17;100.00
46836;BME280;32573;51.290;6.926;2024-03-25T03:56:30;99336.25;;;6.17;100.00
46836;BME280;32573;51.290;6.926;2024-03-25T03:58:57;99333.69;;;6.19;100.00
46836;BME280;32573;51.290;6.926;2024-03-25T04:01:24;99333.75;;;6.20;100.00
46836;BME280;32573;51.290;6.926;2024-03-25T04:03:51;99335.50;;;6.21;100.00
46836;BME280;32573;51.290;6.926;2024-03-25T04:06:18;99335.50;;;6.21;100.00
46836;BME280;32573;51.290;6.926;2024-03-25T04:08:45;99338.16;;;6.23;100.00
46836;BME280;32573;51.290;6.926;2024-03-25T04:11:13;99333.81;;;6.23;100.00
46836;BME280;32573;51.290;6.926;2024-03-25T04:13:41;99336.44;;;6.23;100.00
46836;BME280;32573;51.290;6.926;2024-03-25T04:16:07;99337.34;;;6.25;100.00
46836;BME280;32573;51.290;6.926;2024-03-25T04:18:35;99342.56;;;6.25;100.00
46836;BME280;32573;51.290;6.926;2024-03-25T04:21:02;99341.75;;;6.26;100.00
46836;BME280;32573;51.290;6.926;2024-03-25T04:23:30;99336.56;;;6.28;100.00
46836;BME280;32573;51.290;6.926;2024-03-25T04:26:00;99347.03;;;6.30;100.00
46836;BME280;32573;51.290;6.926;2024-03-25T04:28:29;99337.50;;;6.30;100.00
46836;BME280;32573;51.290;6.926;2024-03-25T04:30:56;99337.56;;;6.32;100.00
46836;BME280;32573;51.290;6.926;2024-03-25T04:33:23;99330.66;;;6.32;100.00
46836;BME280;32573;51.290;6.926;2024-03-25T04:35:49;99337.59;;;6.33;100.00
46836;BME280;32573;51.290;6.926;2024-03-25T04:38:17;99338.47;;;6.34;100.00
46836;BME280;32573;51.290;6.926;2024-03-25T04:40:43;99340.25;;;6.35;100.00
46836;BME280;32573;51.290;6.926;2024-03-25T04:43:10;99343.72;;;6.35;100.00
46836;BME280;32573;51.290;6.926;2024-03-25T04:45:38;99334.22;;;6.36;100.00
46836;BME280;32573;51.290;6.926;2024-03-25T04:48:05;99330.78;;;6.37;100.00
46836;BME280;32573;51.290;6.926;2024-03-25T04:50:33;99324.69;;;6.36;100.00
46836;BME280;32573;51.290;6.926;2024-03-25T04:52:59;99331.69;;;6.37;100.00
46836;BME280;32573;51.290;6.926;2024-03-25T04:55:26;99341.19;;;6.37;100.00
46836;BME280;32573;51.290;6.926;2024-03-25T04:57:52;99342.06;;;6.37;100.00
46836;BME280;32573;51.290;6.926;2024-03-25T05:00:19;99349.91;;;6.39;100.00
46836;BME280;32573;51.290;6.926;2024-03-25T05:02:47;99352.56;;;6.40;100.00
46836;BME280;32573;51.290;6.926;2024-03-25T05:05:13;99346.47;;;6.40;100.00
46836;BME280;32573;51.290;6.926;2024-03-25T05:07:40;99347.34;;;6.40;100.00
46836;BME280;32573;51.290;6.926;2024-03-25T05:10:07;99338.72;;;6.41;100.00
46836;BME280;32573;51.290;6.926;2024-03-25T05:12:34;99342.22;;;6.42;100.00
46836;BME280;32573;51.290;6.926;2024-03-25T05:15:00;99335.28;;;6.42;100.00
46836;BME280;32573;51.290;6.926;2024-03-25T05:17:26;99340.53;;;6.44;100.00
46836;BME280;32573;51.290;6.926;2024-03-25T05:19:54;99343.19;;;6.45;100.00
46836;BME280;32573;51.290;6.926;2024-03-25T05:22:21;99340.59;;;6.45;100.00
46836;BME280;32573;51.290;6.926;2024-03-25T05:24:47;99349.25;;;6.46;100.00
46836;BME280;32573;51.290;6.926;2024-03-25T05:27:15;99355.38;;;6.48;100.00
46836;BME280;32573;51.290;6.926;2024-03-25T05:29:41;99355.38;;;6.48;100.00
46836;BME280;32573;51.290;6.926;2024-03-25T05:32:08;99351.06;;;6.48;100.00
46836;BME280;32573;51.290;6.926;2024-03-25T05:34:34;99346.78;;;6.49;100.00
46836;BME280;32573;51.290;6.926;2024-03-25T05:37:02;99348.53;;;6.50;100.00
46836;BME280;32573;51.290;6.926;2024-03-25T05:39:29;99349.47;;;6.52;100.00
46836;BME280;32573;51.290;6.926;2024-03-25T05:41:55;99352.06;;;6.52;100.00
46836;BME280;32573;51.290;6.926;2024-03-25T05:44:22;99348.59;;;6.53;100.00
46836;BME280;32573;51.290;6.926;2024-03-25T05:46:48;99358.13;;;6.53;100.00
46836;BME280;32573;51.290;6.926;2024-03-25T05:49:15;99359.00;;;6.53;100.00
46836;BME280;32573;51.290;6.926;2024-03-25T05:51:41;99355.59;;;6.54;100.00
46836;BME280;32573;51.290;6.926;2024-03-25T05:54:09;99361.66;;;6.55;100.00
46836;BME280;32573;51.290;6.926;2024-03-25T05:56:35;99357.34;;;6.55;100.00
46836;BME280;32573;51.290;6.926;2024-03-25T05:59:02;99355.69;;;6.57;100.00
46836;BME280;32573;51.290;6.926;2024-03-25T06:01:28;99360.03;;;6.58;100.00
46836;BME280;32573;51.290;6.926;2024-03-25T06:03:55;99356.63;;;6.59;100.00
46836;BME280;32573;51.290;6.926;2024-03-25T06:06:21;99358.38;;;6.60;100.00
46836;BME280;32573;51.290;6.926;2024-03-25T06:08:48;99359.31;;;6.62;100.00
46836;BME280;32573;51.290;6.926;2024-03-25T06:11:16;99358.50;;;6.65;100.00
46836;BME280;32573;51.290;6.926;2024-03-25T06:13:45;99358.56;;;6.66;100.00
46836;BME280;32573;51.290;6.926;2024-03-25T06:16:12;99364.66;;;6.68;100.00
46836;BME280;32573;51.290;6.926;2024-03-25T06:18:38;99366.44;;;6.69;100.00
46836;BME280;32573;51.290;6.926;2024-03-25T06:21:05;99357.81;;;6.70;100.00
46836;BME280;32573;51.290;6.926;2024-03-25T06:23:31;99361.34;;;6.73;100.00
46836;BME280;32573;51.290;6.926;2024-03-25T06:25:58;99356.13;;;6.73;100.00
46836;BME280;32573;51.290;6.926;2024-03-25T06:28:27;99363.09;;;6.74;100.00
46836;BME280;32573;51.290;6.926;2024-03-25T06:30:53;99367.47;;;6.75;100.00
46836;BME280;32573;51.290;6.926;2024-03-25T06:33:38;99362.28;;;6.75;100.00
46836;BME280;32573;51.290;6.926;2024-03-25T06:36:23;99358.00;;;6.77;100.00
46836;BME280;32573;51.290;6.926;2024-03-25T06:38:50;99366.72;;;6.79;100.00
46836;BME280;32573;51.290;6.926;2024-03-25T06:41:16;99362.44;;;6.81;100.00
46836;BME280;32573;51.290;6.926;2024-03-25T06:43:44;99366.03;;;6.84;100.00
46836;BME280;32573;51.290;6.926;2024-03-25T06:46:11;99365.19;;;6.85;100.00
46836;BME280;32573;51.290;6.926;2024-03-25T06:48:38;99366.16;;;6.89;100.00
46836;BME280;32573;51.290;6.926;2024-03-25T06:51:10;99372.28;;;6.91;100.00
46836;BME280;32573;51.290;6.926;2024-03-25T06:53:43;99371.47;;;6.94;100.00
46836;BME280;32573;51.290;6.926;2024-03-25T06:56:13;99368.09;;;6.96;100.00
46836;BME280;32573;51.290;6.926;2024-03-25T06:58:40;99365.53;;;6.98;100.00
46836;BME280;32573;51.290;6.926;2024-03-25T07:01:12;99369.94;;;7.00;100.00
46836;BME280;32573;51.290;6.926;2024-03-25T07:03:39;99365.69;;;7.02;100.00
46836;BME280;32573;51.290;6.926;2024-03-25T07:06:08;99370.09;;;7.05;100.00
46836;BME280;32573;51.290;6.926;2024-03-25T07:08:40;99374.50;;;7.07;100.00
46836;BME280;32573;51.290;6.926;2024-03-25T07:11:09;99377.16;;;7.09;100.00
46836;BME280;32573;51.290;6.926;2024-03-25T07:13:36;99372.81;;;7.09;100.00
46836;BME280;32573;51.290;6.926;2024-03-25T07:16:09;99377.19;;;7.10;100.00
46836;BME280;32573;51.290;6.926;2024-03-25T07:18:36;99372.06;;;7.13;100.00
46836;BME280;32573;51.290;6.926;2024-03-25T07:21:03;99366.03;;;7.15;100.00
46836;BME280;32573;51.290;6.926;2024-03-25T07:23:36;99369.56;;;7.17;100.00
46836;BME280;32573;51.290;6.926;2024-03-25T07:26:03;99363.50;;;7.18;100.00
46836;BME280;32573;51.290;6.926;2024-03-25T07:28:32;99366.16;;;7.19;100.00
46836;BME280;32573;51.290;6.926;2024-03-25T07:30:58;99368.78;;;7.19;100.00
46836;BME280;32573;51.290;6.926;2024-03-25T07:33:29;99364.44;;;7.20;100.00
46836;BME280;32573;51.290;6.926;2024-03-25T07:35:56;99356.66;;;7.21;100.00
46836;BME280;32573;51.290;6.926;2024-03-25T07:38:23;99365.41;;;7.23;100.00
46836;BME280;32573;51.290;6.926;2024-03-25T07:40:52;99366.31;;;7.25;100.00
46836;BME280;32573;51.290;6.926;2024-03-25T07:43:23;99370.72;;;7.26;100.00
46836;BME280;32573;51.290;6.926;2024-03-25T07:45:50;99366.38;;;7.27;100.00
46836;BME280;32573;51.290;6.926;2024-03-25T07:48:19;99369.06;;;7.30;100.00
46836;BME280;32573;51.290;6.926;2024-03-25T07:50:56;99367.38;;;7.32;100.00
46836;BME280;32573;51.290;6.926;2024-03-25T07:53:23;99367.41;;;7.33;100.00
46836;BME280;32573;51.290;6.926;2024-03-25T07:56:00;99371.88;;;7.38;100.00
46836;BME280;32573;51.290;6.926;2024-03-25T07:58:31;99368.41;;;7.37;100.00
46836;BME280;32573;51.290;6.926;2024-03-25T08:01:01;99361.50;;;7.39;100.00
46836;BME280;32573;51.290;6.926;2024-03-25T08:03:30;99371.13;;;7.42;100.00
46836;BME280;32573;51.290;6.926;2024-03-25T08:05:59;99377.28;;;7.45;100.00
46836;BME280;32573;51.290;6.926;2024-03-25T08:08:34;99377.38;;;7.48;100.00
46836;BME280;32573;51.290;6.926;2024-03-25T08:11:01;99365.34;;;7.52;100.00
46836;BME280;32573;51.290;6.926;2024-03-25T08:13:30;99371.50;;;7.55;100.00
46836;BME280;32573;51.290;6.926;2024-03-25T08:15:56;99368.09;;;7.58;100.00
46836;BME280;32573;51.290;6.926;2024-03-25T08:18:23;99369.06;;;7.62;100.00
46836;BME280;32573;51.290;6.926;2024-03-25T08:20:50;99359.59;;;7.65;100.00
46836;BME280;32573;51.290;6.926;2024-03-25T08:23:20;99361.44;;;7.69;100.00
46836;BME280;32573;51.290;6.926;2024-03-25T08:25:47;99371.13;;;7.75;100.00
46836;BME280;32573;51.290;6.926;2024-03-25T08:28:13;99368.59;;;7.78;100.00
46836;BME280;32573;51.290;6.926;2024-03-25T08:30:40;99367.84;;;7.82;100.00
46836;BME280;32573;51.290;6.926;2024-03-25T08:33:09;99365.38;;;7.87;100.00
46836;BME280;32573;51.290;6.926;2024-03-25T08:35:36;99366.31;;;7.90;100.00
46836;BME280;32573;51.290;6.926;2024-03-25T08:38:04;99368.16;;;7.94;100.00
46836;BME280;32573;51.290;6.926;2024-03-25T08:40:32;99363.03;;;7.97;100.00
46836;BME280;32573;51.290;6.926;2024-03-25T08:43:01;99350.94;;;7.99;100.00
46836;BME280;32573;51.290;6.926;2024-03-25T08:45:27;99357.97;;;8.04;100.00
46836;BME280;32573;51.290;6.926;2024-03-25T08:47:54;99349.38;;;8.08;100.00
46836;BME280;32573;51.290;6.926;2024-03-25T08:50:21;99355.59;;;8.13;100.00
46836;BME280;32573;51.290;6.926;2024-03-25T08:52:48;99355.69;;;8.17;100.00
46836;BME280;32573;51.290;6.926;2024-03-25T08:55:15;99356.66;;;8.21;100.00
46836;BME280;32573;51.290;6.926;2024-03-25T08:57:45;99353.28;;;8.25;100.00
46836;BME280;32573;51.290;6.926;2024-03-25T09:00:12;99352.53;;;8.29;100.00
46836;BME280;32573;51.290;6.926;2024-03-25T09:02:40;99357.03;;;8.36;100.00
46836;BME280;32573;51.290;6.926;2024-03-25T09:05:07;99357.19;;;8.42;100.00
46836;BME280;32573;51.290;6.926;2024-03-25T09:07:34;99361.66;;;8.48;100.00
46836;BME280;32573;51.290;6.926;2024-03-25T09:10:02;99360.94;;;8.54;100.00
46836;BME280;32573;51.290;6.926;2024-03-25T09:12:54;99367.97;;;8.58;100.00
46836;BME280;32573;51.290;6.926;2024-03-25T09:15:23;99364.56;;;8.60;100.00
46836;BME280;32573;51.290;6.926;2024-03-25T09:17:53;99363.78;;;8.64;100.00
46836;BME280;32573;51.290;6.926;2024-03-25T09:20:19;99363.91;;;8.69;100.00
46836;BME280;32573;51.290;6.926;2024-03-25T09:22:49;99359.66;;;8.74;100.00
46836;BME280;32573;51.290;6.926;2024-03-25T09:25:17;99356.25;;;8.78;100.00
46836;BME280;32573;51.290;6.926;2024-03-25T09:27:48;99367.66;;;8.83;100.00
46836;BME280;32573;51.290;6.926;2024-03-25T09:30:21;99352.97;;;8.87;100.00
46836;BME280;32573;51.290;6.926;2024-03-25T09:32:48;99362.59;;;8.90;100.00
46836;BME280;32573;51.290;6.926;2024-03-25T09:35:15;99367.00;;;8.92;100.00
46836;BME280;32573;51.290;6.926;2024-03-25T09:37:41;99359.22;;;8.94;100.00
46836;BME280;32573;51.290;6.926;2024-03-25T09:40:09;99354.00;;;8.94;100.00
46836;BME280;32573;51.290;6.926;2024-03-25T09:42:42;99354.88;;;8.94;100.00
46836;BME280;32573;51.290;6.926;2024-03-25T09:45:16;99354.06;;;8.97;100.00
46836;BME280;32573;51.290;6.926;2024-03-25T09:47:52;99348.03;;;9.01;100.00
46836;BME280;32573;51.290;6.926;2024-03-25T09:50:19;99348.16;;;9.07;100.00
46836;BME280;32573;51.290;6.926;2024-03-25T09:52:47;99350.88;;;9.12;100.00
46836;BME280;32573;51.290;6.926;2024-03-25T09:55:17;99338.84;;;9.20;100.00
46836;BME280;32573;51.290;6.926;2024-03-25T09:57:47;99344.16;;;9.24;100.00
46836;BME280;32573;51.290;6.926;2024-03-25T10:00:16;99326.91;;;9.31;100.00
46836;BME280;32573;51.290;6.926;2024-03-25T10:02:44;99328.69;;;9.35;100.00
46836;BME280;32573;51.290;6.926;2024-03-25T10:05:12;99319.22;;;9.39;100.00
46836;BME280;32573;51.290;6.926;2024-03-25T10:07:39;99328.88;;;9.44;100.00
46836;BME280;32573;51.290;6.926;2024-03-25T10:10:07;99323.75;;;9.50;100.00
46836;BME280;32573;51.290;6.926;2024-03-25T10:12:35;99321.22;;;9.55;100.00
46836;BME280;32573;51.290;6.926;2024-03-25T10:15:03;99312.59;;;9.59;100.00
46836;BME280;32573;51.290;6.926;2024-03-25T10:17:30;99322.25;;;9.63;100.00
46836;BME280;32573;51.290;6.926;2024-03-25T10:19:58;99309.25;;;9.66;100.00
46836;BME280;32573;51.290;6.926;2024-03-25T10:22:28;99311.06;;;9.70;100.00
46836;BME280;32573;51.290;6.926;2024-03-25T10:24:54;99293.72;;;9.76;100.00
46836;BME280;32573;51.290;6.926;2024-03-25T10:27:22;99299.06;;;9.82;100.00
46836;BME280;32573;51.290;6.926;2024-03-25T10:29:52;99306.97;;;9.86;100.00
46836;BME280;32573;51.290;6.926;2024-03-25T10:32:18;99298.31;;;9.90;100.00
46836;BME280;32573;51.290;6.926;2024-03-25T10:34:45;99294.03;;;9.94;100.00
46836;BME280;32573;51.290;6.926;2024-03-25T10:37:13;99285.38;;;9.98;100.00
46836;BME280;32573;51.290;6.926;2024-03-25T10:39:47;99275.81;;;10.00;100.00
46836;BME280;32573;51.290;6.926;2024-03-25T10:42:18;99277.59;;;10.03;100.00
46836;BME280;32573;51.290;6.926;2024-03-25T10:44:49;99276.78;;;10.05;100.00
46836;BME280;32573;51.290;6.926;2024-03-25T10:47:20;99288.94;;;10.03;100.00
46836;BME280;32573;51.290;6.926;2024-03-25T10:49:49;99268.91;;;10.04;100.00
46836;BME280;32573;51.290;6.926;2024-03-25T10:52:18;99268.09;;;10.06;100.00
46836;BME280;32573;51.290;6.926;2024-03-25T10:54:49;99263.81;;;10.11;100.00
46836;BME280;32573;51.290;6.926;2024-03-25T10:57:20;99260.41;;;10.17;100.00
46836;BME280;32573;51.290;6.926;2024-03-25T10:59:47;99250.91;;;10.24;100.00
46836;BME280;32573;51.290;6.926;2024-03-25T11:02:15;99251.03;;;10.30;100.00
46836;BME280;32573;51.290;6.926;2024-03-25T11:04:46;99256.34;;;10.36;100.00
46836;BME280;32573;51.290;6.926;2024-03-25T11:07:15;99250.31;;;10.42;100.00
46836;BME280;32573;51.290;6.926;2024-03-25T11:09:43;99252.13;;;10.47;100.00
46836;BME280;32573;51.290;6.926;2024-03-25T11:12:14;99239.16;;;10.53;100.00
46836;BME280;32573;51.290;6.926;2024-03-25T11:14:41;99233.06;;;10.57;100.00
46836;BME280;32573;51.290;6.926;2024-03-25T11:17:14;99219.19;;;10.62;100.00
46836;BME280;32573;51.290;6.926;2024-03-25T11:19:42;99221.81;;;10.65;100.00
46836;BME280;32573;51.290;6.926;2024-03-25T11:22:10;99222.72;;;10.68;100.00
46836;BME280;32573;51.290;6.926;2024-03-25T11:24:43;99218.44;;;10.72;100.00
46836;BME280;32573;51.290;6.926;2024-03-25T11:27:11;99209.72;;;10.74;100.00
46836;BME280;32573;51.290;6.926;2024-03-25T11:29:39;99211.50;;;10.77;100.00
46836;BME280;32573;51.290;6.926;2024-03-25T11:32:06;99210.59;;;10.75;100.00
46836;BME280;32573;51.290;6.926;2024-03-25T11:34:35;99211.50;;;10.77;100.00
46836;BME280;32573;51.290;6.926;2024-03-25T11:37:04;99210.63;;;10.78;100.00
46836;BME280;32573;51.290;6.926;2024-03-25T11:39:30;99208.00;;;10.78;100.00
46836;BME280;32573;51.290;6.926;2024-03-25T11:41:57;99211.50;;;10.77;100.00
46836;BME280;32573;51.290;6.926;2024-03-25T11:44:24;99197.53;;;10.78;100.00
46836;BME280;32573;51.290;6.926;2024-03-25T11:46:52;99205.38;;;10.78;100.00
46836;BME280;32573;51.290;6.926;2024-03-25T11:49:20;99194.09;;;10.82;100.00
46836;BME280;32573;51.290;6.926;2024-03-25T11:51:50;99202.91;;;10.90;100.00
46836;BME280;32573;51.290;6.926;2024-03-25T11:54:18;99193.38;;;10.97;100.00
46836;BME280;32573;51.290;6.926;2024-03-25T11:56:44;99189.09;;;11.04;100.00
46836;BME280;32573;51.290;6.926;2024-03-25T11:59:11;99185.69;;;11.11;100.00
46836;BME280;32573;51.290;6.926;2024-03-25T12:01:37;99182.25;;;11.19;100.00
46836;BME280;32573;51.290;6.926;2024-03-25T12:04:15;99185.81;;;11.26;100.00
46836;BME280;32573;51.290;6.926;2024-03-25T12:06:42;99181.50;;;11.33;100.00
46836;BME280;32573;51.290;6.926;2024-03-25T12:09:10;99177.19;;;11.39;100.00
46836;BME280;32573;51.290;6.926;2024-03-25T12:11:55;99167.66;;;11.46;100.00
46836;BME280;32573;51.290;6.926;2024-03-25T12:14:22;99168.53;;;11.50;100.00
46836;BME280;32573;51.290;6.926;2024-03-25T12:16:51;99160.69;;;11.53;100.00
46836;BME280;32573;51.290;6.926;2024-03-25T12:19:19;99153.72;;;11.55;100.00
46836;BME280;32573;51.290;6.926;2024-03-25T12:21:45;99149.38;;;11.57;100.00
46836;BME280;32573;51.290;6.926;2024-03-25T12:24:13;99143.31;;;11.61;100.00
46836;BME280;32573;51.290;6.926;2024-03-25T12:26:39;99138.97;;;11.66;100.00
46836;BME280;32573;51.290;6.926;2024-03-25T12:29:06;99138.13;;;11.69;100.00
46836;BME280;32573;51.290;6.926;2024-03-25T12:31:33;99141.59;;;11.69;100.00
46836;BME280;32573;51.290;6.926;2024-03-25T12:34:00;99133.78;;;11.71;100.00
46836;BME280;32573;51.290;6.926;2024-03-25T12:36:28;99132.91;;;11.73;100.00
46836;BME280;32573;51.290;6.926;2024-03-25T12:38:55;99125.03;;;11.75;100.00
46836;BME280;32573;51.290;6.926;2024-03-25T12:41:22;99127.66;;;11.75;100.00
46836;BME280;32573;51.290;6.926;2024-03-25T12:43:51;99122.44;;;11.76;100.00
46836;BME280;32573;51.290;6.926;2024-03-25T12:46:17;99118.06;;;11.80;100.00
46836;BME280;32573;51.290;6.926;2024-03-25T12:48:44;99116.38;;;11.83;100.00
46836;BME280;32573;51.290;6.926;2024-03-25T12:51:12;99105.91;;;11.86;100.00
46836;BME280;32573;51.290;6.926;2024-03-25T12:53:41;99105.94;;;11.93;100.00
46836;BME280;32573;51.290;6.926;2024-03-25T12:56:07;99101.59;;;11.98;100.00
46836;BME280;32573;51.290;6.926;2024-03-25T12:58:34;99105.09;;;12.03;100.00
46836;BME280;32573;51.290;6.926;2024-03-25T13:01:00;99096.41;;;12.10;100.00
46836;BME280;32573;51.290;6.926;2024-03-25T13:03:27;99100.81;;;12.17;100.00